Walkersville, Maryland
Current Conditions -  °F | °C
As of 7:57 PM on Wednesday 22 Oct 2014 (Local Time) from KFDK Reporting Station
Overcast Overcast  
Wind Chill: 61°   Ceiling: 3500
Heat Index: 61°   Visibility: 10mi
Dew Point: 45°   Wind: 12mph
Humidity: 55%   Direction: 350°N
Pressure: 29.99"   Gusts: 17mph
Location:  39.49°N, 77.35°W
Report Text: KFDK 222357Z 35010G15KT 10SM OVC035 16/07 A2999
Loading
Personal Weather Stations






























Interactive Weather Map
Tropical Storm Tracking
New forecast layout! Learn more

10-Day Weather Forecast

Advertisements
Track Severe Weather on mobile